Погода Маланжена неделю

Маланже, Ангола

12 - 18 июня
  • 12июня
    Сегодня
    +14°
    +29°
    Ясно и безоблачно
    ВремяПогодаТемператураВлажностьДавлениеВетер, м/сВероятность осадков
    01:00Ясно и безоблачно+16°C58 %668 мм2.8 м/с2 %
    04:00Ясно и безоблачно+14°C60 %667 мм3.0 м/с2 %
    07:00Ясно и безоблачно+14°C58 %668 мм3.5 м/с2 %
    10:00Ясно и безоблачно+22°C33 %670 мм4.0 м/с2 %
    13:00Ясно и безоблачно+28°C25 %669 мм2.7 м/с2 %
    16:00Ясно и безоблачно+28°C27 %667 мм1.3 м/с2 %
    19:00Ясно и безоблачно+20°C55 %666 мм1.5 м/с2 %
    22:00Ясно и безоблачно+18°C52 %667 мм2.6 м/с2 %
  • 13июня
    Четверг
    +15°
    +30°
    Ясно и безоблачно
    ВремяПогодаТемператураВлажностьДавлениеВетер, м/сВероятность осадков
    01:00Ясно и безоблачно+17°C54 %667 мм2.6 м/с1 %
    04:00Ясно и безоблачно+16°C53 %666 мм3.4 м/с1 %
    07:00Ясно и безоблачно+15°C57 %668 мм3.3 м/с1 %
    10:00Ясно и безоблачно+23°C38 %670 мм3.2 м/с1 %
    13:00Ясно и безоблачно+29°C28 %668 мм2.8 м/с1 %
    16:00Ясно и безоблачно+30°C29 %667 мм1.8 м/с1 %
    19:00Ясно и безоблачно+22°C55 %666 мм2.0 м/с1 %
    22:00Ясно и безоблачно+19°C64 %667 мм1.6 м/с1 %
  • 14июня
    Пятница
    +14°
    +31°
    Ясно и безоблачно
    ВремяПогодаТемператураВлажностьДавлениеВетер, м/сВероятность осадков
    01:00Ясно и безоблачно+18°C65 %666 мм2.4 м/с1 %
    04:00Ясно и безоблачно+16°C74 %666 мм1.2 м/с1 %
    07:00Ясно и безоблачно+16°C61 %667 мм3.0 м/с1 %
    10:00Ясно и безоблачно+24°C35 %669 мм3.4 м/с1 %
    13:00Ясно и безоблачно+30°C26 %668 мм2.8 м/с1 %
    16:00Ясно и безоблачно+30°C27 %666 мм1.8 м/с1 %
    19:00Ясно и безоблачно+23°C40 %666 мм3.1 м/с1 %
    22:00Ясно и безоблачно+20°C50 %666 мм2.7 м/с1 %
  • 15июня
    Суббота
    +13°
    +30°
    Ясно и безоблачно
    ВремяПогодаТемператураВлажностьДавлениеВетер, м/сВероятность осадков
    01:00Ясно и безоблачно+17°C61 %665 мм2.4 м/с0 %
    04:00Ясно и безоблачно+15°C58 %665 мм3.0 м/с0 %
    07:00Ясно и безоблачно+15°C51 %666 мм3.6 м/с0 %
    10:00Ясно и безоблачно+23°C30 %668 мм3.8 м/с0 %
    13:00Ясно и безоблачно+29°C21 %667 мм2.8 м/с0 %
    16:00Ясно и безоблачно+29°C25 %666 мм1.1 м/с0 %
    19:00Ясно и безоблачно+22°C42 %665 мм2.3 м/с0 %
    22:00Ясно и безоблачно+19°C38 %665 мм3.0 м/с0 %
  • 16июня
    Воскресенье
    +12°
    +30°
    Ясно и безоблачно
    ВремяПогодаТемператураВлажностьДавлениеВетер, м/сВероятность осадков
    01:00Ясно и безоблачно+16°C59 %665 мм0.7 м/с0 %
    04:00Ясно и безоблачно+15°C49 %665 мм3.0 м/с0 %
    07:00Ясно и безоблачно+15°C50 %666 мм3.5 м/с0 %
    10:00Ясно и безоблачно+24°C27 %668 мм3.7 м/с0 %
    13:00Ясно и безоблачно+29°C18 %667 мм2.9 м/с0 %
    16:00Ясно и безоблачно+29°C19 %666 мм1.8 м/с0 %
    19:00Ясно и безоблачно+21°C31 %665 мм3.0 м/с0 %
    22:00Ясно и безоблачно+19°C34 %665 мм3.5 м/с0 %
Мы используем cookies
Соглашаюсь